createdAt,value
2023-05-13T00:04:51.904Z,69.68
2023-05-13T00:09:53.284Z,70.61
2023-05-13T00:14:54.732Z,71.23
2023-05-13T00:19:56.113Z,71.33
2023-05-13T00:24:57.565Z,70.92
2023-05-13T00:29:59.906Z,71.10
2023-05-13T00:35:01.576Z,70.72
2023-05-13T00:40:03.741Z,71.14
2023-05-13T00:45:06.409Z,71.14
2023-05-13T00:50:09.559Z,70.62
2023-05-13T00:55:11.248Z,69.73
2023-05-13T01:00:14.434Z,69.72
2023-05-13T01:05:43.052Z,69.10
2023-05-13T01:10:57.525Z,69.24
2023-05-13T01:16:04.306Z,69.32
2023-05-13T01:21:07.759Z,69.61
2023-05-13T01:26:09.220Z,69.63
2023-05-13T01:31:11.290Z,70.10
2023-05-13T01:36:13.837Z,69.57
2023-05-13T01:41:15.452Z,69.76
2023-05-13T01:46:17.072Z,69.56
2023-05-13T01:51:18.745Z,69.41
2023-05-13T01:56:21.243Z,69.24
2023-05-13T02:01:23.065Z,69.01
2023-05-13T02:06:24.847Z,69.00
2023-05-13T02:11:26.221Z,69.04
2023-05-13T02:16:27.662Z,69.22
2023-05-13T02:21:29.875Z,69.15
2023-05-13T02:26:31.427Z,69.30
2023-05-13T02:31:33.091Z,68.88
2023-05-13T02:36:34.493Z,69.08
2023-05-13T02:41:37.276Z,69.51
2023-05-13T02:46:38.671Z,69.09
2023-05-13T02:51:40.037Z,69.10
2023-05-13T02:56:41.580Z,69.51
2023-05-13T03:01:43.103Z,69.22
2023-05-13T03:06:44.863Z,69.26
2023-05-13T03:11:46.569Z,69.51
2023-05-13T03:16:47.954Z,69.79
2023-05-13T03:21:49.708Z,69.86
2023-05-13T03:26:51.290Z,69.07
2023-05-13T03:31:53.755Z,68.81
2023-05-13T03:36:55.238Z,69.08
2023-05-13T03:41:56.610Z,69.52
2023-05-13T03:46:58.228Z,69.55
2023-05-13T03:51:59.647Z,69.83
2023-05-13T03:57:01.219Z,69.89
2023-05-13T04:02:05.084Z,70.52
2023-05-13T04:07:06.507Z,71.20
2023-05-13T04:12:08.196Z,71.54
2023-05-13T04:17:09.835Z,71.82
2023-05-13T04:22:11.526Z,71.42
2023-05-13T04:27:13.113Z,71.71
2023-05-13T04:32:17.907Z,72.02
2023-05-13T04:37:19.509Z,72.19
2023-05-13T04:42:20.943Z,71.57
2023-05-13T04:47:22.860Z,71.87
2023-05-13T04:52:24.389Z,72.08
2023-05-13T04:57:25.804Z,71.62
2023-05-13T05:02:30.188Z,72.00
2023-05-13T05:07:34.361Z,72.03
2023-05-13T05:12:36.676Z,71.75
2023-05-13T05:17:38.397Z,72.25
2023-05-13T05:22:41.870Z,72.02
2023-05-13T05:27:43.291Z,71.99
2023-05-13T05:32:44.808Z,72.24
2023-05-13T05:37:46.595Z,72.96
2023-05-13T05:42:48.039Z,72.50
2023-05-13T05:47:50.432Z,71.18
2023-05-13T05:52:52.119Z,71.42
2023-05-13T05:57:53.443Z,70.96
2023-05-13T06:02:55.151Z,71.11
2023-05-13T06:07:56.744Z,70.85
2023-05-13T06:12:58.784Z,70.02
2023-05-13T06:18:00.260Z,69.96
2023-05-13T06:23:01.685Z,68.03
2023-05-13T06:28:03.588Z,68.88
2023-05-13T06:33:05.560Z,68.73
2023-05-13T06:38:07.325Z,68.42
2023-05-13T06:43:08.951Z,67.55
2023-05-13T06:48:10.579Z,67.33
2023-05-13T06:53:12.749Z,66.70
2023-05-13T06:58:14.344Z,66.97
2023-05-13T07:03:16.445Z,65.95
2023-05-13T07:08:19.279Z,65.66
2023-05-13T07:13:21.047Z,65.29
2023-05-13T07:18:22.568Z,65.11
2023-05-13T07:23:25.358Z,63.86
2023-05-13T07:28:27.110Z,63.31
2023-05-13T07:33:28.574Z,63.20
2023-05-13T07:38:29.963Z,61.87
2023-05-13T07:43:35.156Z,62.93
2023-05-13T07:48:36.814Z,61.46
2023-05-13T07:53:38.452Z,61.33
2023-05-13T07:58:39.847Z,60.89
2023-05-13T08:03:41.375Z,59.98
2023-05-13T08:08:42.854Z,61.00
2023-05-13T08:13:44.426Z,59.69
2023-05-13T08:18:45.824Z,59.20
2023-05-13T08:23:47.496Z,57.71
2023-05-13T08:28:52.192Z,55.51
2023-05-13T08:33:56.076Z,57.67
2023-05-13T08:38:57.518Z,58.23
2023-05-13T08:44:00.357Z,57.05
2023-05-13T08:49:02.464Z,56.03
2023-05-13T08:54:04.696Z,55.08
2023-05-13T08:59:06.167Z,54.85
2023-05-13T09:04:09.811Z,53.65
2023-05-13T09:09:11.097Z,53.37
2023-05-13T09:14:13.677Z,52.11
2023-05-13T09:19:15.393Z,51.68
2023-05-13T09:24:21.616Z,51.19
2023-05-13T09:29:24.401Z,50.73
2023-05-13T09:34:30.977Z,47.51
2023-05-13T09:39:37.976Z,43.93
2023-05-13T09:44:39.358Z,44.35
2023-05-13T09:49:41.890Z,43.13
2023-05-13T09:54:44.335Z,43.65
2023-05-13T09:59:45.676Z,44.39
2023-05-13T10:04:47.208Z,41.92
2023-05-13T10:09:48.570Z,44.13
2023-05-13T10:14:51.958Z,42.96
2023-05-13T10:19:54.832Z,41.29
2023-05-13T10:25:00.213Z,43.33
2023-05-13T10:30:04.035Z,43.94
2023-05-13T10:35:14.906Z,42.02
2023-05-13T10:40:44.602Z,41.82
2023-05-13T10:45:58.165Z,42.37
2023-05-13T10:51:07.867Z,39.60
2023-05-13T10:56:09.170Z,39.54
2023-05-13T11:01:28.153Z,41.22
2023-05-13T11:06:34.318Z,41.09
2023-05-13T11:11:37.023Z,42.17
2023-05-13T11:16:38.582Z,43.38
2023-05-13T11:21:40.756Z,40.67
2023-05-13T11:26:48.083Z,41.91
2023-05-13T11:31:57.813Z,41.48
2023-05-13T11:37:04.044Z,40.71
2023-05-13T11:42:08.689Z,38.01
2023-05-13T11:47:10.080Z,39.32
2023-05-13T11:52:15.620Z,40.38
2023-05-13T11:57:36.929Z,40.29
2023-05-13T12:02:40.420Z,40.63
2023-05-13T12:07:43.084Z,40.12
2023-05-13T12:12:45.882Z,38.96
2023-05-13T12:17:48.326Z,39.32
2023-05-13T12:22:52.358Z,40.40
2023-05-13T12:27:53.823Z,40.16
2023-05-13T12:32:58.817Z,41.21
2023-05-13T12:38:05.085Z,40.74
2023-05-13T12:43:06.465Z,42.21
2023-05-13T12:48:08.160Z,42.50
2023-05-13T12:53:09.721Z,42.12
2023-05-13T12:58:11.234Z,42.17
2023-05-13T13:03:12.764Z,41.99
2023-05-13T13:08:14.142Z,40.99
2023-05-13T13:13:15.814Z,41.70
2023-05-13T13:18:18.246Z,41.30
2023-05-13T13:23:20.320Z,40.12
2023-05-13T13:28:21.623Z,40.45
2023-05-13T13:33:23.142Z,41.96
2023-05-13T13:38:24.566Z,40.87
2023-05-13T13:43:25.939Z,41.34
2023-05-13T13:48:27.407Z,40.98
2023-05-13T13:53:28.818Z,41.22
2023-05-13T13:58:30.152Z,40.74
2023-05-13T14:03:31.733Z,39.49
2023-05-13T14:08:33.199Z,41.23
2023-05-13T14:13:34.573Z,40.66
2023-05-13T14:18:35.896Z,40.67
2023-05-13T14:23:38.385Z,40.36
2023-05-13T14:28:39.670Z,39.66
2023-05-13T14:33:41.139Z,40.06
2023-05-13T14:38:43.570Z,40.84
2023-05-13T14:43:48.376Z,39.16
2023-05-13T14:48:49.758Z,39.19
2023-05-13T14:53:51.550Z,38.02
2023-05-13T14:58:53.248Z,38.97
2023-05-13T15:03:54.564Z,38.29
2023-05-13T15:08:56.368Z,38.42
2023-05-13T15:13:57.825Z,39.98
2023-05-13T15:18:59.170Z,39.90
2023-05-13T15:24:00.580Z,38.96
2023-05-13T15:29:02.013Z,40.20
2023-05-13T15:34:03.426Z,39.38
2023-05-13T15:39:04.906Z,40.07
2023-05-13T15:44:06.243Z,40.01
2023-05-13T15:49:07.574Z,39.85
2023-05-13T15:54:08.908Z,39.87
2023-05-13T15:59:10.317Z,40.84
2023-05-13T16:04:11.704Z,40.95
2023-05-13T16:09:13.262Z,39.98
2023-05-13T16:14:14.615Z,41.58
2023-05-13T16:19:15.958Z,41.90
2023-05-13T16:24:17.277Z,43.07
2023-05-13T16:29:18.647Z,42.25
2023-05-13T16:34:19.956Z,42.80
2023-05-13T16:39:21.246Z,43.14
2023-05-13T16:44:22.621Z,43.56
2023-05-13T16:49:24.540Z,42.91
2023-05-13T16:54:26.072Z,43.53
2023-05-13T16:59:28.217Z,43.62
2023-05-13T17:04:29.660Z,42.35
2023-05-13T17:09:31.082Z,42.49
2023-05-13T17:14:32.415Z,42.00
2023-05-13T17:19:33.940Z,41.98
2023-05-13T17:24:35.845Z,42.81
2023-05-13T17:29:37.386Z,42.33
2023-05-13T17:34:38.809Z,42.09
2023-05-13T17:39:40.186Z,42.17
2023-05-13T17:44:41.614Z,41.98
2023-05-13T17:49:42.931Z,42.35
2023-05-13T17:54:44.227Z,42.92
2023-05-13T17:59:45.598Z,43.51
2023-05-13T18:04:46.948Z,42.95
2023-05-13T18:09:49.930Z,44.08
2023-05-13T18:14:52.016Z,44.49
2023-05-13T18:19:53.309Z,44.98
2023-05-13T18:24:54.658Z,44.63
2023-05-13T18:29:56.034Z,44.57
2023-05-13T18:34:57.496Z,45.53
2023-05-13T18:39:59.275Z,45.68
2023-05-13T18:45:00.656Z,45.78
2023-05-13T18:50:01.978Z,47.00
2023-05-13T18:55:05.004Z,47.42
2023-05-13T19:00:07.099Z,47.55
2023-05-13T19:05:08.630Z,48.41
2023-05-13T19:10:10.145Z,48.39
2023-05-13T19:15:11.631Z,48.39
2023-05-13T19:20:13.285Z,49.24
2023-05-13T19:25:14.670Z,49.93
2023-05-13T19:30:16.141Z,49.80
2023-05-13T19:35:17.578Z,49.88
2023-05-13T19:40:18.990Z,50.64
2023-05-13T19:45:20.829Z,50.94
2023-05-13T19:50:22.415Z,50.87
2023-05-13T19:55:24.373Z,51.08
2023-05-13T20:00:25.880Z,51.48
2023-05-13T20:05:27.366Z,51.70
2023-05-13T20:10:29.097Z,51.65
2023-05-13T20:15:31.282Z,52.18
2023-05-13T20:20:32.608Z,52.20
2023-05-13T20:25:33.908Z,52.81
2023-05-13T20:30:35.430Z,53.24
2023-05-13T20:35:39.921Z,53.73
2023-05-13T20:40:41.291Z,54.39
2023-05-13T20:45:43.113Z,54.46
2023-05-13T20:50:44.656Z,54.57
2023-05-13T20:55:46.016Z,55.05
2023-05-13T21:00:47.476Z,55.11
2023-05-13T21:05:48.850Z,55.25
2023-05-13T21:10:50.199Z,54.89
2023-05-13T21:15:51.889Z,54.60
2023-05-13T21:20:53.369Z,54.61
2023-05-13T21:25:54.772Z,54.32
2023-05-13T21:30:56.089Z,54.07
2023-05-13T21:35:57.456Z,54.39
2023-05-13T21:40:59.301Z,55.16
2023-05-13T21:46:00.653Z,55.36
2023-05-13T21:51:02.083Z,55.37
2023-05-13T21:56:03.918Z,55.22
2023-05-13T22:01:05.318Z,55.13
2023-05-13T22:06:06.842Z,54.60
2023-05-13T22:11:08.182Z,54.06
2023-05-13T22:16:09.628Z,53.96
2023-05-13T22:21:11.094Z,54.03
2023-05-13T22:26:12.453Z,53.82
2023-05-13T22:31:14.969Z,54.31
2023-05-13T22:36:16.289Z,54.12
2023-05-13T22:41:20.623Z,54.54
2023-05-13T22:46:22.022Z,54.48
2023-05-13T22:51:23.394Z,54.95
2023-05-13T22:56:24.883Z,55.55
2023-05-13T23:01:26.283Z,56.19
2023-05-13T23:06:27.712Z,56.91
2023-05-13T23:11:28.976Z,57.37
2023-05-13T23:16:30.399Z,58.06
2023-05-13T23:21:32.298Z,58.16
2023-05-13T23:26:33.661Z,58.36
2023-05-13T23:31:35.219Z,58.96
2023-05-13T23:36:36.580Z,59.53
2023-05-13T23:41:38.002Z,60.07
2023-05-13T23:46:39.410Z,59.70
2023-05-13T23:51:40.827Z,59.53
2023-05-13T23:56:42.194Z,60.03
